createdAt,value
2023-03-28T00:00:34.857Z,2.49
2023-03-28T00:01:34.876Z,2.45
2023-03-28T00:02:34.917Z,2.42
2023-03-28T00:03:34.968Z,2.48
2023-03-28T00:04:34.944Z,2.33
2023-03-28T00:05:35.014Z,2.42
2023-03-28T00:06:34.986Z,2.31
2023-03-28T00:07:35.010Z,2.41
2023-03-28T00:08:35.032Z,2.38
2023-03-28T00:09:35.067Z,2.31
2023-03-28T00:10:35.080Z,2.24
2023-03-28T00:11:35.095Z,2.15
2023-03-28T00:12:35.118Z,2.13
2023-03-28T00:13:35.140Z,2.09
2023-03-28T00:14:35.161Z,2.06
2023-03-28T00:15:35.207Z,2.02
2023-03-28T00:16:35.368Z,2.05
2023-03-28T00:17:35.261Z,1.98
2023-03-28T00:18:35.249Z,2.13
2023-03-28T00:19:35.270Z,2.05
2023-03-28T00:20:35.296Z,2.06
2023-03-28T00:21:35.315Z,1.92
2023-03-28T00:22:35.333Z,2.01
2023-03-28T00:23:35.358Z,2.01
2023-03-28T00:24:35.377Z,1.92
2023-03-28T00:25:35.420Z,1.90
2023-03-28T00:26:35.450Z,1.87
2023-03-28T00:27:35.465Z,1.89
2023-03-28T00:28:35.497Z,1.93
2023-03-28T00:29:35.485Z,1.92
2023-03-28T00:30:35.508Z,1.84
2023-03-28T00:31:35.616Z,1.87
2023-03-28T00:32:35.561Z,1.87
2023-03-28T00:33:35.580Z,1.92
2023-03-28T00:34:35.596Z,1.84
2023-03-28T00:35:35.640Z,1.86
2023-03-28T00:36:35.639Z,1.79
2023-03-28T00:37:35.658Z,1.79
2023-03-28T00:38:35.688Z,1.79
2023-03-28T00:39:35.700Z,1.75
2023-03-28T00:40:35.724Z,1.69
2023-03-28T00:41:35.794Z,1.66
2023-03-28T00:42:35.772Z,1.53
2023-03-28T00:43:35.788Z,1.56
2023-03-28T00:44:35.810Z,1.60
2023-03-28T00:45:35.927Z,1.48
2023-03-28T00:46:35.871Z,1.58
2023-03-28T00:47:35.966Z,1.56
2023-03-28T00:48:35.897Z,1.54
2023-03-28T00:49:35.915Z,1.56
2023-03-28T00:50:35.940Z,1.42
2023-03-28T00:51:35.958Z,1.44
2023-03-28T00:52:35.980Z,1.38
2023-03-28T00:53:36.006Z,1.35
2023-03-28T00:54:36.024Z,1.40
2023-03-28T00:55:36.052Z,1.42
2023-03-28T00:56:36.080Z,1.46
2023-03-28T00:57:36.111Z,1.50
2023-03-28T00:58:36.110Z,1.47
2023-03-28T00:59:36.130Z,1.40
2023-03-28T01:00:36.159Z,1.39
2023-03-28T01:01:36.234Z,1.39
2023-03-28T01:02:36.260Z,1.48
2023-03-28T01:03:36.311Z,1.51
2023-03-28T01:04:36.274Z,1.36
2023-03-28T01:05:36.299Z,1.36
2023-03-28T01:06:36.278Z,1.39
2023-03-28T01:07:36.300Z,1.47
2023-03-28T01:08:36.319Z,1.36
2023-03-28T01:09:36.544Z,1.32
2023-03-28T01:10:36.362Z,1.44
2023-03-28T01:11:36.396Z,1.35
2023-03-28T01:12:36.608Z,1.26
2023-03-28T01:13:36.447Z,1.28
2023-03-28T01:14:36.450Z,1.29
2023-03-28T01:15:36.468Z,1.24
2023-03-28T01:16:36.540Z,1.36
2023-03-28T01:17:36.583Z,1.39
2023-03-28T01:18:36.530Z,1.38
2023-03-28T01:19:36.553Z,1.24
2023-03-28T01:20:36.575Z,1.24
2023-03-28T01:21:36.599Z,1.15
2023-03-28T01:22:36.616Z,1.14
2023-03-28T01:23:36.637Z,1.21
2023-03-28T01:24:36.660Z,1.08
2023-03-28T01:25:36.678Z,1.02
2023-03-28T01:26:36.702Z,0.97
2023-03-28T01:27:36.720Z,1.04
2023-03-28T01:28:36.745Z,1.02
2023-03-28T01:29:36.784Z,0.96
2023-03-28T01:30:36.795Z,0.90
2023-03-28T01:31:36.833Z,0.89
2023-03-28T01:32:36.860Z,0.86
2023-03-28T01:34:36.874Z,0.96
2023-03-28T01:35:36.934Z,0.89
2023-03-28T01:36:36.913Z,0.89
2023-03-28T01:37:36.932Z,0.93
2023-03-28T01:38:36.956Z,0.90
2023-03-28T01:39:36.982Z,0.90
2023-03-28T01:40:37.001Z,0.84
2023-03-28T01:41:37.022Z,0.86
2023-03-28T01:42:37.045Z,0.85
2023-03-28T01:43:37.059Z,0.81
2023-03-28T01:44:37.085Z,0.75
2023-03-28T01:45:37.166Z,0.81
2023-03-28T01:46:37.131Z,0.81
2023-03-28T01:47:37.166Z,0.74
2023-03-28T01:48:37.167Z,0.74
2023-03-28T01:49:37.223Z,0.71
2023-03-28T01:50:37.209Z,0.78
2023-03-28T01:51:37.233Z,0.85
2023-03-28T01:52:37.255Z,0.69
2023-03-28T01:53:37.272Z,0.81
2023-03-28T01:54:37.294Z,0.81
2023-03-28T01:55:41.469Z,0.78
2023-03-28T01:56:37.649Z,0.82
2023-03-28T01:57:37.457Z,0.75
2023-03-28T01:58:37.381Z,0.82
2023-03-28T01:59:37.399Z,0.81
2023-03-28T02:00:37.426Z,0.75
2023-03-28T02:01:37.498Z,0.75
2023-03-28T02:02:37.530Z,0.81
2023-03-28T02:03:37.519Z,0.66
2023-03-28T02:04:37.504Z,0.67
2023-03-28T02:05:37.526Z,0.72
2023-03-28T02:06:37.551Z,0.66
2023-03-28T02:07:37.565Z,0.67
2023-03-28T02:08:37.598Z,0.64
2023-03-28T02:09:37.614Z,0.71
2023-03-28T02:10:37.656Z,0.63
2023-03-28T02:11:37.654Z,0.67
2023-03-28T02:12:37.678Z,0.67
2023-03-28T02:13:37.696Z,0.60
2023-03-28T02:14:37.731Z,0.69
2023-03-28T02:15:37.740Z,0.66
2023-03-28T02:16:37.857Z,0.67
2023-03-28T02:17:37.812Z,0.48
2023-03-28T02:18:37.804Z,0.48
2023-03-28T02:19:37.845Z,0.57
2023-03-28T02:20:37.845Z,0.47
2023-03-28T02:21:37.870Z,0.50
2023-03-28T02:22:37.888Z,0.57
2023-03-28T02:23:37.910Z,0.48
2023-03-28T02:24:37.930Z,0.48
2023-03-28T02:25:37.952Z,0.47
2023-03-28T02:26:37.972Z,0.52
2023-03-28T02:27:37.993Z,0.52
2023-03-28T02:28:38.024Z,0.47
2023-03-28T02:29:38.036Z,0.66
2023-03-28T02:30:38.059Z,0.58
2023-03-28T02:31:38.174Z,0.72
2023-03-28T02:32:38.161Z,0.69
2023-03-28T02:33:38.228Z,0.67
2023-03-28T02:34:38.140Z,0.64
2023-03-28T02:35:38.188Z,0.61
2023-03-28T02:36:38.182Z,0.61
2023-03-28T02:37:38.200Z,0.52
2023-03-28T02:38:38.223Z,0.53
2023-03-28T02:39:38.245Z,0.61
2023-03-28T02:40:38.269Z,0.47
2023-03-28T02:41:38.285Z,0.50
2023-03-28T02:42:38.305Z,0.52
2023-03-28T02:43:38.325Z,0.48
2023-03-28T02:44:38.349Z,0.45
2023-03-28T02:45:38.377Z,0.47
2023-03-28T02:46:38.568Z,0.53
2023-03-28T02:47:38.423Z,0.45
2023-03-28T02:48:38.431Z,0.47
2023-03-28T02:49:49.521Z,0.48
2023-03-28T02:50:38.480Z,0.53
2023-03-28T02:51:38.507Z,0.35
2023-03-28T02:52:38.521Z,0.47
2023-03-28T02:53:38.538Z,0.44
2023-03-28T02:54:38.555Z,0.44
2023-03-28T02:55:38.576Z,0.39
2023-03-28T02:56:38.621Z,0.37
2023-03-28T02:57:38.624Z,0.32
2023-03-28T02:58:38.645Z,0.34
2023-03-28T02:59:38.693Z,0.24
2023-03-28T03:00:38.681Z,0.37
2023-03-28T03:01:38.712Z,0.28
2023-03-28T03:02:38.765Z,0.32
2023-03-28T03:03:38.799Z,0.32
2023-03-28T03:04:38.767Z,0.27
2023-03-28T03:05:38.816Z,0.26
2023-03-28T03:06:38.804Z,0.26
2023-03-28T03:07:38.828Z,0.28
2023-03-28T03:08:38.853Z,0.24
2023-03-28T03:09:38.870Z,0.27
2023-03-28T03:10:38.917Z,0.34
2023-03-28T03:11:38.908Z,0.20
2023-03-28T03:12:38.932Z,0.20
2023-03-28T03:13:38.953Z,0.24
2023-03-28T03:14:39.001Z,0.28
2023-03-28T03:15:39.011Z,0.35
2023-03-28T03:16:39.062Z,0.32
2023-03-28T03:17:39.069Z,0.34
2023-03-28T03:18:39.057Z,0.28
2023-03-28T03:19:39.459Z,0.28
2023-03-28T03:20:39.097Z,0.14
2023-03-28T03:21:39.141Z,0.21
2023-03-28T03:22:39.156Z,0.23
2023-03-28T03:23:39.156Z,0.26
2023-03-28T03:24:39.190Z,0.21
2023-03-28T03:25:39.222Z,0.26
2023-03-28T03:26:39.220Z,0.26
2023-03-28T03:27:39.250Z,0.16
2023-03-28T03:28:39.464Z,0.20
2023-03-28T03:29:39.600Z,0.23
2023-03-28T03:30:39.300Z,0.26
2023-03-28T03:31:39.408Z,0.13
2023-03-28T03:32:39.443Z,0.19
2023-03-28T03:33:39.361Z,0.19
2023-03-28T03:34:39.386Z,0.20
2023-03-28T03:35:39.467Z,0.16
2023-03-28T03:36:39.424Z,0.08
2023-03-28T03:37:39.479Z,0.09
2023-03-28T03:38:39.476Z,0.10
2023-03-28T03:39:39.486Z,0.09
2023-03-28T03:40:39.549Z,0.09
2023-03-28T03:41:39.536Z,0.10
2023-03-28T03:42:39.562Z,0.09
2023-03-28T03:43:39.582Z,0.14
2023-03-28T03:44:39.592Z,0.10
2023-03-28T03:45:39.611Z,0.13
2023-03-28T03:46:39.647Z,0.10
2023-03-28T03:47:39.677Z,0.10
2023-03-28T03:48:49.662Z,0.06
2023-03-28T03:49:39.693Z,0.03
2023-03-28T03:50:39.715Z,0.03
2023-03-28T03:51:39.751Z,-0.07
2023-03-28T03:52:39.760Z,-0.04
2023-03-28T03:53:39.797Z,-0.05
2023-03-28T03:54:39.803Z,-0.05
2023-03-28T03:55:39.816Z,0.01
2023-03-28T03:56:39.887Z,-0.04
2023-03-28T03:57:39.872Z,-0.01
2023-03-28T03:58:39.878Z,-0.07
2023-03-28T03:59:39.895Z,-0.02
2023-03-28T04:00:39.917Z,0.02
2023-03-28T04:01:40.064Z,0.01
2023-03-28T04:02:40.032Z,0.14
2023-03-28T04:03:40.025Z,0.09
2023-03-28T04:04:40.001Z,0.16
2023-03-28T04:05:40.020Z,0.16
2023-03-28T04:06:40.050Z,0.03
2023-03-28T04:07:40.067Z,0.02
2023-03-28T04:08:40.084Z,0.03
2023-03-28T04:09:40.123Z,0.09
2023-03-28T04:10:40.119Z,-0.01
2023-03-28T04:11:40.140Z,0.06
2023-03-28T04:12:40.164Z,-0.02
2023-03-28T04:13:40.182Z,0.06
2023-03-28T04:14:40.202Z,-0.09
2023-03-28T04:15:40.237Z,0.01
2023-03-28T04:16:41.597Z,-0.02
2023-03-28T04:17:40.273Z,0.01
2023-03-28T04:18:40.284Z,-0.09
2023-03-28T04:19:40.308Z,-0.12
2023-03-28T04:20:40.331Z,-0.22
2023-03-28T04:21:40.347Z,-0.10
2023-03-28T04:22:45.363Z,-0.19
2023-03-28T04:23:40.387Z,-0.15
2023-03-28T04:24:40.409Z,-0.09
2023-03-28T04:25:40.447Z,-0.15
2023-03-28T04:26:40.448Z,-0.18
2023-03-28T04:27:40.468Z,-0.20
2023-03-28T04:28:40.493Z,-0.18
2023-03-28T04:29:40.511Z,-0.18
2023-03-28T04:30:40.534Z,-0.25
2023-03-28T04:31:40.587Z,-0.12
2023-03-28T04:32:40.592Z,-0.15
2023-03-28T04:33:40.600Z,-0.13
2023-03-28T04:34:40.615Z,-0.15
2023-03-28T04:35:40.642Z,-0.15
2023-03-28T04:36:40.658Z,-0.20
2023-03-28T04:37:40.677Z,-0.10
2023-03-28T04:38:40.704Z,-0.16
2023-03-28T04:39:40.715Z,-0.28
2023-03-28T04:40:40.745Z,-0.23
2023-03-28T04:41:40.841Z,-0.16
2023-03-28T04:42:40.783Z,-0.31
2023-03-28T04:43:40.802Z,-0.25
2023-03-28T04:44:40.823Z,-0.31
2023-03-28T04:45:40.862Z,-0.28
2023-03-28T04:46:40.864Z,-0.28
2023-03-28T04:47:40.904Z,-0.28
2023-03-28T04:48:40.906Z,-0.25
2023-03-28T04:49:40.924Z,-0.27
2023-03-28T04:50:40.951Z,-0.33
2023-03-28T04:51:40.968Z,-0.28
2023-03-28T04:52:40.993Z,-0.30
2023-03-28T04:53:41.008Z,-0.30
2023-03-28T04:54:41.029Z,-0.31
2023-03-28T04:55:41.061Z,-0.19
2023-03-28T04:56:41.093Z,-0.19
2023-03-28T04:57:41.122Z,-0.25
2023-03-28T04:58:41.111Z,-0.22
2023-03-28T04:59:41.131Z,-0.18
2023-03-28T05:01:41.196Z,-0.18
2023-03-28T05:02:41.295Z,-0.15
2023-03-28T05:03:41.301Z,-0.15
2023-03-28T05:04:41.232Z,-0.18
2023-03-28T05:05:41.333Z,-0.13
2023-03-28T05:06:41.275Z,-0.28
2023-03-28T05:07:41.291Z,-0.22
2023-03-28T05:08:41.312Z,-0.22
2023-03-28T05:09:41.334Z,-0.25
2023-03-28T05:10:41.354Z,-0.33
2023-03-28T05:11:41.374Z,-0.28
2023-03-28T05:12:41.394Z,-0.30
2023-03-28T05:13:41.436Z,-0.33
2023-03-28T05:14:41.440Z,-0.22
2023-03-28T05:15:41.457Z,-0.28
2023-03-28T05:16:41.542Z,-0.28
2023-03-28T05:17:41.524Z,-0.27
2023-03-28T05:18:41.514Z,-0.20
2023-03-28T05:19:41.532Z,-0.27
2023-03-28T05:20:41.553Z,-0.31
2023-03-28T05:21:41.582Z,-0.33
2023-03-28T05:22:41.610Z,-0.33
2023-03-28T05:23:41.616Z,-0.25
2023-03-28T05:24:41.639Z,-0.25
2023-03-28T05:25:41.654Z,-0.20
2023-03-28T05:26:41.681Z,-0.16
2023-03-28T05:27:41.698Z,-0.20
2023-03-28T05:28:41.718Z,-0.25
2023-03-28T05:29:41.761Z,-0.16
2023-03-28T05:30:41.763Z,-0.10
2023-03-28T05:31:41.891Z,-0.12
2023-03-28T05:32:41.840Z,-0.07
2023-03-28T05:33:41.816Z,-0.12
2023-03-28T05:34:41.837Z,0.01
2023-03-28T05:35:41.888Z,-0.15
2023-03-28T05:36:41.879Z,-0.10
2023-03-28T05:37:43.545Z,-0.04
2023-03-28T05:38:41.922Z,-0.16
2023-03-28T05:39:41.942Z,-0.13
2023-03-28T05:40:41.990Z,-0.09
2023-03-28T05:41:41.986Z,-0.15
2023-03-28T05:42:42.002Z,-0.02
2023-03-28T05:43:42.025Z,-0.04
2023-03-28T05:44:42.046Z,-0.04
2023-03-28T05:45:42.151Z,-0.01
2023-03-28T05:46:42.083Z,-0.02
2023-03-28T05:47:42.160Z,0.02
2023-03-28T05:48:42.125Z,0.02
2023-03-28T05:49:42.145Z,0.16
2023-03-28T05:50:42.169Z,0.09
2023-03-28T05:51:42.188Z,0.06
2023-03-28T05:52:42.217Z,0.09
2023-03-28T05:53:42.233Z,0.24
2023-03-28T05:54:50.679Z,0.23
2023-03-28T05:55:42.321Z,0.26
2023-03-28T05:56:42.320Z,0.32
2023-03-28T05:57:42.309Z,0.31
2023-03-28T05:58:42.346Z,0.35
2023-03-28T05:59:42.350Z,0.47
2023-03-28T06:00:42.372Z,0.67
2023-03-28T06:01:43.216Z,0.66
2023-03-28T06:02:42.501Z,0.67
2023-03-28T06:03:42.541Z,0.71
2023-03-28T06:04:42.490Z,0.81
2023-03-28T06:05:42.478Z,0.81
2023-03-28T06:06:42.496Z,0.94
2023-03-28T06:07:43.273Z,0.96
2023-03-28T06:08:42.539Z,0.96
2023-03-28T06:09:42.562Z,1.11
2023-03-28T06:10:42.579Z,1.20
2023-03-28T06:11:42.603Z,1.32
2023-03-28T06:12:42.622Z,1.38
2023-03-28T06:13:42.642Z,1.38
2023-03-28T06:14:42.664Z,1.42
2023-03-28T06:15:42.685Z,1.51
2023-03-28T06:16:42.741Z,1.56
2023-03-28T06:17:42.799Z,1.74
2023-03-28T06:18:42.748Z,1.84
2023-03-28T06:19:42.784Z,1.82
2023-03-28T06:20:42.799Z,1.78
2023-03-28T06:21:42.812Z,1.89
2023-03-28T06:22:42.836Z,2.04
2023-03-28T06:23:42.859Z,2.13
2023-03-28T06:24:42.877Z,2.13
2023-03-28T06:25:42.905Z,2.18
2023-03-28T06:26:42.927Z,2.23
2023-03-28T06:27:42.943Z,2.26
2023-03-28T06:28:42.966Z,2.30
2023-03-28T06:29:42.987Z,2.59
2023-03-28T06:30:43.009Z,2.62
2023-03-28T06:31:43.101Z,2.62
2023-03-28T06:32:43.164Z,2.60
2023-03-28T06:33:43.097Z,2.55
2023-03-28T06:34:43.100Z,2.58
2023-03-28T06:35:43.153Z,2.49
2023-03-28T06:36:43.144Z,2.38
2023-03-28T06:37:43.177Z,2.44
2023-03-28T06:38:43.230Z,2.49
2023-03-28T06:39:43.208Z,2.44
2023-03-28T06:40:43.235Z,2.48
2023-03-28T06:41:43.252Z,2.54
2023-03-28T06:42:43.282Z,2.44
2023-03-28T06:43:43.303Z,2.42
2023-03-28T06:44:43.324Z,2.42
2023-03-28T06:45:43.342Z,2.48
2023-03-28T06:46:43.433Z,2.55
2023-03-28T06:47:43.425Z,2.54
2023-03-28T06:48:43.416Z,2.62
2023-03-28T06:49:43.653Z,2.59
2023-03-28T06:50:43.454Z,2.60
2023-03-28T06:51:43.474Z,2.73
2023-03-28T06:52:43.499Z,2.67
2023-03-28T06:53:43.532Z,2.66
2023-03-28T06:54:43.578Z,2.66
2023-03-28T06:55:43.563Z,2.66
2023-03-28T06:56:43.596Z,2.76
2023-03-28T06:57:43.617Z,2.83
2023-03-28T06:58:43.632Z,2.80
2023-03-28T06:59:43.655Z,2.80
2023-03-28T07:00:43.677Z,2.84
2023-03-28T07:01:43.760Z,2.88
2023-03-28T07:02:43.782Z,2.85
2023-03-28T07:03:43.858Z,2.93
2023-03-28T07:04:43.770Z,2.93
2023-03-28T07:05:43.806Z,2.98
2023-03-28T07:06:43.817Z,3.05
2023-03-28T07:07:43.833Z,3.14
2023-03-28T07:08:43.863Z,3.17
2023-03-28T07:09:43.880Z,3.19
2023-03-28T07:10:43.904Z,3.21
2023-03-28T07:11:43.934Z,3.24
2023-03-28T07:12:43.952Z,3.26
2023-03-28T07:13:43.975Z,3.37
2023-03-28T07:14:43.994Z,3.35
2023-03-28T07:15:44.030Z,3.46
2023-03-28T07:16:44.086Z,3.48
2023-03-28T07:17:44.093Z,3.46
2023-03-28T07:18:44.090Z,3.51
2023-03-28T07:19:44.107Z,3.63
2023-03-28T07:20:45.642Z,3.63
2023-03-28T07:21:44.188Z,3.69
2023-03-28T07:22:44.178Z,3.72
2023-03-28T07:23:44.201Z,3.81
2023-03-28T07:24:44.220Z,3.90
2023-03-28T07:25:44.262Z,3.89
2023-03-28T07:26:44.269Z,4.04
2023-03-28T07:27:44.296Z,4.07
2023-03-28T07:28:44.314Z,4.18
2023-03-28T07:29:44.340Z,4.17
2023-03-28T07:30:44.362Z,4.28
2023-03-28T07:31:44.445Z,4.28
2023-03-28T07:32:52.994Z,4.29
2023-03-28T07:33:44.477Z,4.39
2023-03-28T07:34:44.450Z,4.46
2023-03-28T07:35:44.565Z,4.51
2023-03-28T07:36:44.504Z,4.60
2023-03-28T07:37:44.556Z,4.61
2023-03-28T07:38:46.635Z,4.64
2023-03-28T07:39:44.572Z,4.69
2023-03-28T07:40:44.596Z,4.84
2023-03-28T07:41:44.619Z,4.92
2023-03-28T07:42:44.647Z,4.98
2023-03-28T07:43:44.676Z,5.15
2023-03-28T07:44:44.692Z,5.10
2023-03-28T07:45:44.751Z,5.20
2023-03-28T07:46:44.741Z,5.23
2023-03-28T07:47:44.798Z,5.36
2023-03-28T07:48:44.793Z,5.37
2023-03-28T07:49:44.815Z,5.48
2023-03-28T07:50:44.844Z,5.54
2023-03-28T07:51:44.874Z,5.52
2023-03-28T07:52:44.887Z,5.60
2023-03-28T07:53:44.932Z,5.72
2023-03-28T07:54:44.938Z,5.73
2023-03-28T07:55:54.374Z,5.75
2023-03-28T07:56:45.009Z,5.75
2023-03-28T07:57:45.010Z,5.87
2023-03-28T07:58:45.039Z,5.98
2023-03-28T07:59:45.063Z,5.95
2023-03-28T08:00:45.087Z,6.06
2023-03-28T08:01:45.113Z,5.99
2023-03-28T08:02:45.359Z,6.02
2023-03-28T08:03:45.227Z,6.07
2023-03-28T08:04:45.200Z,6.05
2023-03-28T08:05:45.308Z,6.15
2023-03-28T08:06:45.238Z,6.18
2023-03-28T08:07:45.276Z,6.36
2023-03-28T08:08:45.290Z,6.37
2023-03-28T08:09:47.966Z,6.52
2023-03-28T08:10:45.345Z,6.61
2023-03-28T08:11:45.366Z,6.61
2023-03-28T08:12:45.388Z,6.60
2023-03-28T08:13:45.419Z,6.79
2023-03-28T08:14:45.439Z,6.88
2023-03-28T08:15:45.481Z,6.88
2023-03-28T08:16:45.493Z,7.01
2023-03-28T08:17:45.547Z,6.95
2023-03-28T08:18:45.549Z,7.03
2023-03-28T08:19:45.577Z,7.09
2023-03-28T08:20:45.598Z,7.00
2023-03-28T08:21:45.622Z,7.15
2023-03-28T08:22:45.650Z,7.15
2023-03-28T08:23:45.690Z,7.11
2023-03-28T08:24:45.699Z,7.13
2023-03-28T08:25:45.765Z,7.22
2023-03-28T08:26:48.179Z,7.27
2023-03-28T08:27:45.780Z,7.47
2023-03-28T08:28:45.824Z,7.31
2023-03-28T08:29:46.045Z,7.27
2023-03-28T08:30:45.862Z,7.30
2023-03-28T08:31:46.015Z,7.45
2023-03-28T08:32:48.662Z,7.52
2023-03-28T08:33:45.938Z,7.52
2023-03-28T08:34:45.968Z,7.48
2023-03-28T08:35:46.015Z,7.61
2023-03-28T08:36:46.024Z,7.74
2023-03-28T08:37:46.044Z,7.75
2023-03-28T08:39:46.099Z,7.77
2023-03-28T08:42:46.401Z,7.95
2023-03-28T08:44:33.784Z,8.03
2023-03-28T08:45:33.794Z,8.09
2023-03-28T08:46:34.073Z,8.10
2023-03-28T08:47:33.873Z,8.13
2023-03-28T08:51:00.046Z,8.47
2023-03-28T08:51:59.783Z,8.44
2023-03-28T08:52:59.805Z,8.49
2023-03-28T08:53:59.834Z,8.54
2023-03-28T08:55:00.065Z,8.58
2023-03-28T08:56:42.471Z,8.64
2023-03-28T08:58:42.567Z,8.83
2023-03-28T08:59:42.513Z,8.76
2023-03-28T09:00:42.544Z,8.85
2023-03-28T09:01:42.837Z,8.92
2023-03-28T09:02:42.680Z,8.89
2023-03-28T09:03:42.701Z,8.64
2023-03-28T09:04:42.662Z,8.50
2023-03-28T09:05:42.683Z,8.47
2023-03-28T09:06:42.713Z,8.64
2023-03-28T09:07:42.731Z,8.65
2023-03-28T09:08:42.758Z,8.80
2023-03-28T09:09:42.789Z,8.98
2023-03-28T09:11:25.365Z,9.37
2023-03-28T09:16:20.840Z,9.75
2023-03-28T09:17:20.760Z,9.66
2023-03-28T09:18:20.788Z,9.60
2023-03-28T09:19:20.815Z,9.63
2023-03-28T09:20:20.849Z,9.70
2023-03-28T09:21:20.869Z,9.60
2023-03-28T09:22:20.962Z,9.72
2023-03-28T09:23:20.920Z,9.78
2023-03-28T09:24:20.951Z,9.62
2023-03-28T09:25:20.976Z,9.71
2023-03-28T09:26:21.004Z,9.62
2023-03-28T09:27:21.027Z,9.50
2023-03-28T09:28:21.056Z,9.41
2023-03-28T09:29:21.084Z,9.42
2023-03-28T09:30:21.110Z,9.38
2023-03-28T09:31:21.199Z,9.30
2023-03-28T09:32:21.318Z,9.41
2023-03-28T09:33:21.227Z,9.44
2023-03-28T09:34:24.446Z,9.47
2023-03-28T09:36:08.823Z,9.56
2023-03-28T09:37:08.832Z,9.64
2023-03-28T09:38:08.861Z,9.62
2023-03-28T09:39:08.886Z,9.64
2023-03-28T09:40:08.924Z,9.63
2023-03-28T09:41:08.942Z,9.72
2023-03-28T09:42:08.969Z,9.71
2023-03-28T09:43:09.000Z,9.72
2023-03-28T09:44:09.026Z,9.78
2023-03-28T09:45:09.053Z,9.88
2023-03-28T09:46:09.157Z,9.92
2023-03-28T09:47:09.114Z,9.96
2023-03-28T09:48:09.269Z,9.95
2023-03-28T09:49:09.191Z,9.84
2023-03-28T09:50:12.762Z,9.89
2023-03-28T09:51:09.214Z,9.85
2023-03-28T09:52:09.246Z,9.93
2023-03-28T09:53:09.278Z,9.92
2023-03-28T09:54:09.308Z,9.92
2023-03-28T09:55:09.327Z,9.85
2023-03-28T09:56:09.353Z,9.88
2023-03-28T09:57:09.407Z,9.90
2023-03-28T09:58:09.409Z,9.99
2023-03-28T09:59:09.434Z,9.95
2023-03-28T10:00:09.478Z,9.88
2023-03-28T10:01:09.514Z,9.90
2023-03-28T10:02:09.519Z,10.10
2023-03-28T10:03:09.575Z,10.11
2023-03-28T10:04:09.620Z,10.13
2023-03-28T10:05:09.613Z,10.10
2023-03-28T10:06:09.632Z,10.31
2023-03-28T10:07:09.683Z,10.33
2023-03-28T10:08:09.688Z,10.33
2023-03-28T10:09:09.708Z,10.32
2023-03-28T10:10:09.738Z,10.41
2023-03-28T10:11:09.766Z,10.36
2023-03-28T10:12:09.793Z,10.38
2023-03-28T10:13:09.828Z,10.26
2023-03-28T10:14:09.847Z,10.31
2023-03-28T10:15:09.873Z,10.31
2023-03-28T10:16:09.930Z,10.35
2023-03-28T10:17:09.930Z,10.38
2023-03-28T10:18:09.978Z,10.38
2023-03-28T10:19:09.982Z,10.54
2023-03-28T10:20:10.036Z,10.58
2023-03-28T10:21:10.036Z,10.57
2023-03-28T10:22:10.065Z,10.46
2023-03-28T10:23:10.092Z,10.46
2023-03-28T10:24:10.120Z,10.39
2023-03-28T10:25:10.144Z,10.32
2023-03-28T10:26:10.180Z,10.39
2023-03-28T10:27:10.199Z,10.55
2023-03-28T10:28:10.229Z,10.59
2023-03-28T10:29:10.267Z,10.57
2023-03-28T10:30:10.284Z,10.80
2023-03-28T10:31:10.317Z,10.83
2023-03-28T10:32:10.337Z,10.76
2023-03-28T10:33:10.394Z,10.66
2023-03-28T10:34:10.394Z,10.67
2023-03-28T10:35:10.419Z,10.67
2023-03-28T10:36:10.510Z,10.63
2023-03-28T10:37:10.473Z,10.66
2023-03-28T10:38:10.507Z,10.66
2023-03-28T10:39:10.528Z,10.83
2023-03-28T10:40:10.571Z,10.85
2023-03-28T10:41:10.585Z,11.03
2023-03-28T10:42:10.612Z,11.23
2023-03-28T10:43:10.637Z,11.09
2023-03-28T10:44:10.667Z,11.08
2023-03-28T10:45:10.694Z,11.15
2023-03-28T10:46:10.736Z,11.06
2023-03-28T10:47:10.747Z,11.03
2023-03-28T10:48:10.780Z,11.09
2023-03-28T10:49:10.805Z,11.06
2023-03-28T10:50:10.833Z,11.15
2023-03-28T10:51:10.857Z,11.06
2023-03-28T10:52:11.108Z,10.92
2023-03-28T10:53:10.920Z,11.09
2023-03-28T10:54:10.946Z,10.95
2023-03-28T10:55:10.978Z,10.88
2023-03-28T10:56:10.994Z,10.87
2023-03-28T10:57:11.463Z,11.02
2023-03-28T10:58:11.055Z,11.12
2023-03-28T10:59:11.078Z,11.27
2023-03-28T11:00:11.106Z,11.28
2023-03-28T11:01:11.133Z,11.41
2023-03-28T11:02:11.238Z,11.43
2023-03-28T11:03:11.251Z,11.41
2023-03-28T11:04:11.335Z,11.41
2023-03-28T11:05:11.244Z,11.27
2023-03-28T11:06:11.313Z,11.27
2023-03-28T11:07:11.306Z,11.18
2023-03-28T11:08:11.349Z,11.21
2023-03-28T11:09:11.357Z,11.13
2023-03-28T11:10:11.382Z,11.21
2023-03-28T11:11:11.407Z,11.10
2023-03-28T11:12:19.867Z,11.18
2023-03-28T11:13:11.463Z,11.21
2023-03-28T11:14:11.492Z,11.24
2023-03-28T11:15:11.527Z,11.03
2023-03-28T11:16:11.626Z,11.06
2023-03-28T11:17:11.593Z,11.03
2023-03-28T11:18:11.665Z,10.91
2023-03-28T11:19:11.632Z,10.92
2023-03-28T11:20:11.658Z,10.87
2023-03-28T11:21:11.686Z,10.83
2023-03-28T11:22:11.718Z,10.70
2023-03-28T11:23:11.744Z,10.69
2023-03-28T11:24:11.792Z,10.59
2023-03-28T11:25:11.795Z,10.61
2023-03-28T11:26:11.824Z,10.66
2023-03-28T11:27:16.123Z,10.66
2023-03-28T11:28:11.882Z,10.80
2023-03-28T11:29:11.910Z,10.92
2023-03-28T11:30:11.941Z,10.87
2023-03-28T11:31:11.970Z,10.94
2023-03-28T11:32:12.000Z,10.87
2023-03-28T11:33:12.027Z,11.09
2023-03-28T11:34:12.042Z,11.12
2023-03-28T11:35:12.067Z,11.20
2023-03-28T11:36:12.106Z,11.23
2023-03-28T11:37:12.119Z,11.20
2023-03-28T11:38:12.158Z,11.21
2023-03-28T11:39:12.181Z,11.26
2023-03-28T11:40:12.255Z,11.26
2023-03-28T11:41:12.245Z,11.15
2023-03-28T11:42:12.262Z,11.05
2023-03-28T11:43:12.293Z,11.20
2023-03-28T11:44:12.317Z,11.23
2023-03-28T11:45:12.343Z,11.21
2023-03-28T11:46:12.445Z,11.13
2023-03-28T11:47:12.394Z,11.12
2023-03-28T11:48:12.424Z,11.06
2023-03-28T11:49:12.449Z,10.95
2023-03-28T11:50:12.532Z,10.87
2023-03-28T11:51:12.517Z,10.83
2023-03-28T11:52:12.536Z,10.84
2023-03-28T11:53:12.559Z,10.80
2023-03-28T11:54:12.605Z,10.79
2023-03-28T11:55:14.900Z,10.88
2023-03-28T11:56:12.661Z,10.94
2023-03-28T11:57:12.726Z,10.95
2023-03-28T11:58:12.736Z,10.95
2023-03-28T11:59:12.735Z,10.94
2023-03-28T12:00:26.349Z,10.90
2023-03-28T12:01:12.802Z,10.92
2023-03-28T12:02:12.815Z,10.88
2023-03-28T12:03:12.969Z,10.92
2023-03-28T12:04:12.896Z,11.12
2023-03-28T12:05:12.903Z,11.24
2023-03-28T12:06:12.926Z,11.28
2023-03-28T12:07:12.939Z,11.27
2023-03-28T12:08:12.968Z,11.42
2023-03-28T12:09:13.018Z,11.56
2023-03-28T12:10:13.020Z,11.66
2023-03-28T12:11:13.050Z,11.71
2023-03-28T12:12:13.096Z,11.94
2023-03-28T12:13:13.104Z,12.07
2023-03-28T12:14:13.127Z,12.01
2023-03-28T12:15:13.156Z,11.97
2023-03-28T12:16:13.207Z,11.97
2023-03-28T12:17:13.257Z,11.91
2023-03-28T12:18:13.242Z,12.00
2023-03-28T12:19:13.263Z,11.79
2023-03-28T12:20:13.308Z,11.61
2023-03-28T12:21:13.322Z,11.68
2023-03-28T12:22:13.347Z,11.63
2023-03-28T12:23:13.373Z,11.53
2023-03-28T12:24:13.407Z,11.38
2023-03-28T12:25:13.454Z,11.30
2023-03-28T12:26:13.464Z,11.43
2023-03-28T12:27:13.490Z,11.27
2023-03-28T12:28:13.547Z,11.38
2023-03-28T12:29:13.539Z,11.34
2023-03-28T12:30:13.578Z,11.33
2023-03-28T12:31:13.648Z,11.45
2023-03-28T12:32:13.633Z,11.39
2023-03-28T12:33:13.662Z,11.35
2023-03-28T12:34:13.677Z,11.30
2023-03-28T12:35:13.723Z,11.27
2023-03-28T12:36:13.777Z,11.24
2023-03-28T12:37:13.755Z,11.34
2023-03-28T12:38:13.785Z,11.27
2023-03-28T12:39:14.084Z,11.28
2023-03-28T12:40:13.845Z,11.16
2023-03-28T12:41:13.864Z,11.16
2023-03-28T12:42:13.906Z,11.20
2023-03-28T12:43:13.926Z,11.31
2023-03-28T12:44:13.969Z,11.35
2023-03-28T12:45:13.997Z,11.42
2023-03-28T12:46:14.062Z,11.42
2023-03-28T12:47:14.054Z,11.34
2023-03-28T12:48:14.114Z,11.42
2023-03-28T12:49:14.082Z,11.39
2023-03-28T12:50:14.115Z,11.43
2023-03-28T12:51:14.135Z,11.39
2023-03-28T12:52:14.164Z,11.35
2023-03-28T12:53:14.187Z,11.38
2023-03-28T12:54:14.234Z,11.41
2023-03-28T12:55:14.280Z,11.41
2023-03-28T12:56:14.272Z,11.39
2023-03-28T12:57:21.006Z,11.33
2023-03-28T12:58:14.934Z,11.52
2023-03-28T12:59:14.349Z,11.39
2023-03-28T13:00:14.397Z,11.41
2023-03-28T13:01:14.434Z,11.41
2023-03-28T13:02:14.432Z,11.48
2023-03-28T13:03:14.454Z,11.48
2023-03-28T13:04:14.620Z,11.53
2023-03-28T13:05:16.153Z,11.61
2023-03-28T13:06:14.545Z,11.64
2023-03-28T13:07:16.995Z,11.67
2023-03-28T13:08:14.597Z,11.70
2023-03-28T13:09:14.625Z,11.76
2023-03-28T13:10:14.679Z,11.73
2023-03-28T13:11:14.679Z,11.75
2023-03-28T13:12:14.701Z,11.68
2023-03-28T13:13:14.732Z,11.66
2023-03-28T13:14:14.761Z,11.64
2023-03-28T13:15:14.786Z,11.68
2023-03-28T13:16:14.874Z,11.64
2023-03-28T13:17:14.840Z,11.43
2023-03-28T13:18:14.863Z,11.42
2023-03-28T13:19:18.002Z,11.21
2023-03-28T13:20:14.921Z,11.09
2023-03-28T13:21:14.943Z,11.18
2023-03-28T13:22:14.971Z,11.26
2023-03-28T13:23:14.997Z,11.13
2023-03-28T13:24:15.025Z,11.18